Monday, October 23, 2017, 1:22 PM EDT
Back to Local

KCQX, Chatham Municipal Airport

Location: Chatham, MA, United States Lat: 41.683
Local Time: 1:22 PM EDT (17:22 GMT) Lon: -70
Time Zone: US/Eastern Elev: 68 ft

Show me the last for .
Show Coded

Time T Td Feel RH Dir Speed Gust Alt SLP Vis Weather Sky Remarks
2017-10-23 12:52 69 63 - 80 150° 7 - 30.33 30.33 10 CLR None
2017-10-23 11:52 68 62 - 81 160° 5 - 30.35 30.36 10 CLR None
2017-10-23 10:52 66 61 - 83 Variable 6 - 30.38 30.38 10 CLR None
2017-10-23 09:52 64 61 - 89 160° 5 - 30.39 30.40 10 CLR None
2017-10-23 08:52 62 61 - 96 140° 6 - 30.40 30.40 10 CLR None
2017-10-23 07:52 56 56 - 100 - Calm - 30.39 30.40 10 CLR 6-hr Min Temp (8am): 54.0°F
6-hr Max Temp (8am): 57.9°F
2017-10-23 06:52 55 55 - 100 - Calm - 30.38 30.39 10 CLR None
2017-10-23 05:52 55 55 - 100 - Calm - 30.39 30.39 4 BR CLR None
2017-10-23 04:52 56 55 - 96 200° 3 - 30.39 30.39 7 CLR None
2017-10-23 04:02 56 56 - 100 - Calm - 30.39 - 5 BR CLR None
2017-10-23 03:52 55 54 - 96 - Calm - 30.39 30.39 2 BR CLR Variable visibility
2017-10-23 02:52 58 58 - 100 - Calm - 30.40 30.40 7 CLR None
2017-10-23 01:52 58 58 - 100 210° 3 - 30.41 30.41 7 CLR 6-hr Min Temp (2am): 57.9°F
6-hr Max Temp (2am): 61.0°F
2017-10-23 00:52 59 58 - 96 210° 5 - 30.42 30.42 10 CLR 24-hr Min Temp (1am): 54.0°F
24-hr Max Temp (1am): 73.0°F
2017-10-22 23:52 58 58 - 100 210° 3 - 30.42 30.42 10 CLR None
2017-10-22 22:52 59 59 - 100 220° 5 - 30.43 30.43 10 CLR None
2017-10-22 21:52 59 59 - 100 200° 3 - 30.43 30.43 10 CLR None
2017-10-22 21:25 60 59 - 96 210° 5 - 30.42 - 10 SCT005 None
2017-10-22 20:52 60 60 - 100 Variable 3 - 30.42 30.42 10 OVC005 None
2017-10-22 20:11 60 60 - 100 200° 3 - 30.41 - 10 OVC005 None
2017-10-22 20:00 60 60 - 100 170° 3 - 30.41 - 10 OVC004 None
2017-10-22 19:52 60 60 - 100 Variable 5 - 30.41 30.41 9 OVC005 6-hr Min Temp (8pm): 60.1°F
6-hr Max Temp (8pm): 70.0°F
2017-10-22 19:38 60 60 - 100 Variable 3 - 30.41 - 8 BKN005 None
2017-10-22 18:52 61 61 - 100 - Calm - 30.41 30.41 10 FEW003 None
2017-10-22 18:41 61 61 - 100 200° 3 - 30.41 - 10 FEW003 None
2017-10-22 17:52 62 61 - 96 200° 5 - 30.40 30.40 10 CLR None
2017-10-22 16:52 65 62 - 90 220° 5 - 30.40 30.40 10 CLR None
2017-10-22 15:52 66 62 - 87 220° 6 - 30.40 30.40 10 CLR None
2017-10-22 14:52 68 62 - 81 - - - 30.40 30.40 10 CLR None
2017-10-22 13:52 70 61 - 73 210° 7 - 30.40 30.40 10 CLR 6-hr Min Temp (2pm): 55.9°F
6-hr Max Temp (2pm): 73.0°F

Support USWX by starting your Amazon purchase here.